sensor_id;sensor_type;location;lat;lon;timestamp;P1;durP1;ratioP1;P2;durP2;ratioP2
75928;SDS011;64606;44.062;2.986;2024-01-06T00:00:26;1.90;;;1.60;;
75928;SDS011;64606;44.062;2.986;2024-01-06T00:02:53;1.80;;;1.70;;
75928;SDS011;64606;44.062;2.986;2024-01-06T00:05:20;1.90;;;1.80;;
75928;SDS011;64606;44.062;2.986;2024-01-06T00:07:47;2.08;;;1.60;;
75928;SDS011;64606;44.062;2.986;2024-01-06T00:10:14;1.70;;;1.60;;
75928;SDS011;64606;44.062;2.986;2024-01-06T00:12:41;2.65;;;1.88;;
75928;SDS011;64606;44.062;2.986;2024-01-06T00:15:08;1.60;;;1.50;;
75928;SDS011;64606;44.062;2.986;2024-01-06T00:17:38;1.60;;;1.50;;
75928;SDS011;64606;44.062;2.986;2024-01-06T00:20:05;1.67;;;1.58;;
75928;SDS011;64606;44.062;2.986;2024-01-06T00:22:32;1.65;;;1.55;;
75928;SDS011;64606;44.062;2.986;2024-01-06T00:24:58;1.98;;;1.83;;
75928;SDS011;64606;44.062;2.986;2024-01-06T00:27:25;1.98;;;1.67;;
75928;SDS011;64606;44.062;2.986;2024-01-06T00:29:51;1.88;;;1.77;;
75928;SDS011;64606;44.062;2.986;2024-01-06T00:32:17;1.85;;;1.70;;
75928;SDS011;64606;44.062;2.986;2024-01-06T00:34:43;3.03;;;1.80;;
75928;SDS011;64606;44.062;2.986;2024-01-06T00:37:09;1.70;;;1.60;;
75928;SDS011;64606;44.062;2.986;2024-01-06T00:39:35;1.40;;;1.30;;
75928;SDS011;64606;44.062;2.986;2024-01-06T00:42:01;2.05;;;1.40;;
75928;SDS011;64606;44.062;2.986;2024-01-06T00:44:28;1.50;;;1.40;;
75928;SDS011;64606;44.062;2.986;2024-01-06T00:46:54;1.60;;;1.50;;
75928;SDS011;64606;44.062;2.986;2024-01-06T00:49:20;1.70;;;1.60;;
75928;SDS011;64606;44.062;2.986;2024-01-06T00:51:46;1.50;;;1.40;;
75928;SDS011;64606;44.062;2.986;2024-01-06T00:54:12;1.27;;;1.17;;
75928;SDS011;64606;44.062;2.986;2024-01-06T00:56:39;2.10;;;1.38;;
75928;SDS011;64606;44.062;2.986;2024-01-06T00:59:07;1.30;;;1.20;;
75928;SDS011;64606;44.062;2.986;2024-01-06T01:01:34;1.50;;;1.40;;
75928;SDS011;64606;44.062;2.986;2024-01-06T01:04:00;1.30;;;1.20;;
75928;SDS011;64606;44.062;2.986;2024-01-06T01:06:26;1.40;;;1.30;;
75928;SDS011;64606;44.062;2.986;2024-01-06T01:08:53;2.03;;;1.10;;
75928;SDS011;64606;44.062;2.986;2024-01-06T01:11:19;1.00;;;1.00;;
75928;SDS011;64606;44.062;2.986;2024-01-06T01:13:45;1.20;;;1.10;;
75928;SDS011;64606;44.062;2.986;2024-01-06T01:16:12;1.20;;;1.10;;
75928;SDS011;64606;44.062;2.986;2024-01-06T01:18:39;2.00;;;1.30;;
75928;SDS011;64606;44.062;2.986;2024-01-06T01:21:05;1.50;;;1.40;;
75928;SDS011;64606;44.062;2.986;2024-01-06T01:23:32;1.20;;;1.10;;
75928;SDS011;64606;44.062;2.986;2024-01-06T01:25:59;1.48;;;1.38;;
75928;SDS011;64606;44.062;2.986;2024-01-06T01:28:25;1.30;;;1.00;;
75928;SDS011;64606;44.062;2.986;2024-01-06T01:30:52;1.90;;;1.40;;
75928;SDS011;64606;44.062;2.986;2024-01-06T01:33:19;1.75;;;1.40;;
75928;SDS011;64606;44.062;2.986;2024-01-06T01:35:46;1.40;;;1.20;;
75928;SDS011;64606;44.062;2.986;2024-01-06T01:38:12;1.45;;;0.90;;
75928;SDS011;64606;44.062;2.986;2024-01-06T01:40:39;1.30;;;1.15;;
75928;SDS011;64606;44.062;2.986;2024-01-06T01:43:05;1.10;;;1.00;;
75928;SDS011;64606;44.062;2.986;2024-01-06T01:45:35;0.90;;;0.90;;
75928;SDS011;64606;44.062;2.986;2024-01-06T01:48:01;1.10;;;1.00;;
75928;SDS011;64606;44.062;2.986;2024-01-06T01:50:27;0.98;;;0.98;;
75928;SDS011;64606;44.062;2.986;2024-01-06T01:52:56;1.38;;;0.90;;
75928;SDS011;64606;44.062;2.986;2024-01-06T01:55:22;1.20;;;0.90;;
75928;SDS011;64606;44.062;2.986;2024-01-06T01:57:48;1.17;;;1.05;;
75928;SDS011;64606;44.062;2.986;2024-01-06T02:00:14;0.80;;;0.80;;
75928;SDS011;64606;44.062;2.986;2024-01-06T02:02:41;0.82;;;0.82;;
75928;SDS011;64606;44.062;2.986;2024-01-06T02:05:07;1.35;;;0.90;;
75928;SDS011;64606;44.062;2.986;2024-01-06T02:07:33;1.02;;;0.90;;
75928;SDS011;64606;44.062;2.986;2024-01-06T02:09:59;1.00;;;0.90;;
75928;SDS011;64606;44.062;2.986;2024-01-06T02:12:25;1.17;;;0.90;;
75928;SDS011;64606;44.062;2.986;2024-01-06T02:14:52;1.00;;;0.90;;
75928;SDS011;64606;44.062;2.986;2024-01-06T02:17:18;1.08;;;0.98;;
75928;SDS011;64606;44.062;2.986;2024-01-06T02:19:44;0.70;;;0.70;;
75928;SDS011;64606;44.062;2.986;2024-01-06T02:22:10;1.65;;;0.80;;
75928;SDS011;64606;44.062;2.986;2024-01-06T02:24:36;0.90;;;0.90;;
75928;SDS011;64606;44.062;2.986;2024-01-06T02:27:03;0.90;;;0.90;;
75928;SDS011;64606;44.062;2.986;2024-01-06T02:29:29;0.80;;;0.80;;
75928;SDS011;64606;44.062;2.986;2024-01-06T02:31:55;0.80;;;0.80;;
75928;SDS011;64606;44.062;2.986;2024-01-06T02:34:24;1.60;;;0.90;;
75928;SDS011;64606;44.062;2.986;2024-01-06T02:36:51;1.00;;;0.90;;
75928;SDS011;64606;44.062;2.986;2024-01-06T02:39:20;0.98;;;0.95;;
75928;SDS011;64606;44.062;2.986;2024-01-06T02:41:49;1.10;;;1.00;;
75928;SDS011;64606;44.062;2.986;2024-01-06T02:44:17;1.15;;;1.13;;
75928;SDS011;64606;44.062;2.986;2024-01-06T02:46:43;1.88;;;1.10;;
75928;SDS011;64606;44.062;2.986;2024-01-06T02:49:10;1.35;;;0.90;;
75928;SDS011;64606;44.062;2.986;2024-01-06T02:51:36;0.73;;;0.73;;
75928;SDS011;64606;44.062;2.986;2024-01-06T02:54:03;1.00;;;0.90;;
75928;SDS011;64606;44.062;2.986;2024-01-06T02:56:30;1.30;;;0.85;;
75928;SDS011;64606;44.062;2.986;2024-01-06T02:58:56;0.82;;;0.82;;
75928;SDS011;64606;44.062;2.986;2024-01-06T03:01:22;0.80;;;0.80;;
75928;SDS011;64606;44.062;2.986;2024-01-06T03:03:48;0.80;;;0.80;;
75928;SDS011;64606;44.062;2.986;2024-01-06T03:06:14;0.80;;;0.80;;
75928;SDS011;64606;44.062;2.986;2024-01-06T03:08:40;0.90;;;0.80;;
75928;SDS011;64606;44.062;2.986;2024-01-06T03:11:07;0.88;;;0.88;;
75928;SDS011;64606;44.062;2.986;2024-01-06T03:13:33;1.08;;;0.88;;
75928;SDS011;64606;44.062;2.986;2024-01-06T03:18:30;0.93;;;0.75;;
75928;SDS011;64606;44.062;2.986;2024-01-06T03:20:57;0.70;;;0.70;;
75928;SDS011;64606;44.062;2.986;2024-01-06T03:23:24;0.73;;;0.73;;
75928;SDS011;64606;44.062;2.986;2024-01-06T03:25:50;1.10;;;0.98;;
75928;SDS011;64606;44.062;2.986;2024-01-06T03:28:17;0.77;;;0.70;;
75928;SDS011;64606;44.062;2.986;2024-01-06T03:30:43;0.90;;;0.90;;
75928;SDS011;64606;44.062;2.986;2024-01-06T03:33:09;0.93;;;0.90;;
75928;SDS011;64606;44.062;2.986;2024-01-06T03:35:37;0.60;;;0.60;;
75928;SDS011;64606;44.062;2.986;2024-01-06T03:38:03;0.80;;;0.80;;
75928;SDS011;64606;44.062;2.986;2024-01-06T03:40:29;1.00;;;0.90;;
75928;SDS011;64606;44.062;2.986;2024-01-06T03:42:55;0.85;;;0.85;;
75928;SDS011;64606;44.062;2.986;2024-01-06T03:45:21;0.80;;;0.80;;
75928;SDS011;64606;44.062;2.986;2024-01-06T03:47:47;0.70;;;0.70;;
75928;SDS011;64606;44.062;2.986;2024-01-06T03:50:14;0.77;;;0.77;;
75928;SDS011;64606;44.062;2.986;2024-01-06T03:52:40;0.70;;;0.70;;
75928;SDS011;64606;44.062;2.986;2024-01-06T03:55:06;1.60;;;0.65;;
75928;SDS011;64606;44.062;2.986;2024-01-06T03:57:32;0.60;;;0.60;;
75928;SDS011;64606;44.062;2.986;2024-01-06T03:59:58;0.52;;;0.52;;
75928;SDS011;64606;44.062;2.986;2024-01-06T04:02:24;0.68;;;0.68;;
75928;SDS011;64606;44.062;2.986;2024-01-06T04:04:51;0.60;;;0.60;;
75928;SDS011;64606;44.062;2.986;2024-01-06T04:07:17;0.98;;;0.70;;
75928;SDS011;64606;44.062;2.986;2024-01-06T04:09:43;0.70;;;0.70;;
75928;SDS011;64606;44.062;2.986;2024-01-06T04:12:09;0.60;;;0.60;;
75928;SDS011;64606;44.062;2.986;2024-01-06T04:14:35;0.60;;;0.60;;
75928;SDS011;64606;44.062;2.986;2024-01-06T04:17:01;0.90;;;0.80;;
75928;SDS011;64606;44.062;2.986;2024-01-06T04:19:28;0.90;;;0.68;;
75928;SDS011;64606;44.062;2.986;2024-01-06T04:21:54;0.70;;;0.70;;
75928;SDS011;64606;44.062;2.986;2024-01-06T04:24:20;0.70;;;0.70;;
75928;SDS011;64606;44.062;2.986;2024-01-06T04:26:46;0.60;;;0.60;;
75928;SDS011;64606;44.062;2.986;2024-01-06T04:29:12;1.73;;;0.80;;
75928;SDS011;64606;44.062;2.986;2024-01-06T04:31:38;1.33;;;0.85;;
75928;SDS011;64606;44.062;2.986;2024-01-06T04:34:04;1.15;;;0.75;;
75928;SDS011;64606;44.062;2.986;2024-01-06T04:36:30;1.42;;;0.75;;
75928;SDS011;64606;44.062;2.986;2024-01-06T04:38:56;0.70;;;0.70;;
75928;SDS011;64606;44.062;2.986;2024-01-06T04:41:22;0.80;;;0.70;;
75928;SDS011;64606;44.062;2.986;2024-01-06T04:43:49;0.75;;;0.60;;
75928;SDS011;64606;44.062;2.986;2024-01-06T04:46:15;1.38;;;0.90;;
75928;SDS011;64606;44.062;2.986;2024-01-06T04:48:41;1.88;;;0.60;;
75928;SDS011;64606;44.062;2.986;2024-01-06T04:51:09;1.38;;;1.10;;
75928;SDS011;64606;44.062;2.986;2024-01-06T04:53:36;0.80;;;0.80;;
75928;SDS011;64606;44.062;2.986;2024-01-06T04:56:02;0.63;;;0.63;;
75928;SDS011;64606;44.062;2.986;2024-01-06T04:58:28;0.70;;;0.70;;
75928;SDS011;64606;44.062;2.986;2024-01-06T05:00:55;0.88;;;0.88;;
75928;SDS011;64606;44.062;2.986;2024-01-06T05:03:21;0.60;;;0.60;;
75928;SDS011;64606;44.062;2.986;2024-01-06T05:05:47;0.75;;;0.75;;
75928;SDS011;64606;44.062;2.986;2024-01-06T05:08:13;0.80;;;0.80;;
75928;SDS011;64606;44.062;2.986;2024-01-06T05:10:39;0.70;;;0.70;;
75928;SDS011;64606;44.062;2.986;2024-01-06T05:13:05;0.85;;;0.68;;
75928;SDS011;64606;44.062;2.986;2024-01-06T05:15:31;1.15;;;0.80;;
75928;SDS011;64606;44.062;2.986;2024-01-06T05:17:57;0.95;;;0.73;;
75928;SDS011;64606;44.062;2.986;2024-01-06T05:20:24;0.80;;;0.80;;
75928;SDS011;64606;44.062;2.986;2024-01-06T05:22:50;0.70;;;0.70;;
75928;SDS011;64606;44.062;2.986;2024-01-06T05:25:16;0.95;;;0.80;;
75928;SDS011;64606;44.062;2.986;2024-01-06T05:27:42;0.80;;;0.80;;
75928;SDS011;64606;44.062;2.986;2024-01-06T05:30:08;0.70;;;0.70;;
75928;SDS011;64606;44.062;2.986;2024-01-06T05:32:34;0.68;;;0.68;;
75928;SDS011;64606;44.062;2.986;2024-01-06T05:35:00;0.70;;;0.70;;
75928;SDS011;64606;44.062;2.986;2024-01-06T05:37:27;1.30;;;0.80;;
75928;SDS011;64606;44.062;2.986;2024-01-06T05:39:53;0.70;;;0.70;;
75928;SDS011;64606;44.062;2.986;2024-01-06T05:42:19;0.90;;;0.90;;
75928;SDS011;64606;44.062;2.986;2024-01-06T05:44:45;0.80;;;0.80;;
75928;SDS011;64606;44.062;2.986;2024-01-06T05:47:12;2.70;;;0.90;;
75928;SDS011;64606;44.062;2.986;2024-01-06T05:49:41;0.75;;;0.73;;
75928;SDS011;64606;44.062;2.986;2024-01-06T05:52:08;0.55;;;0.55;;
75928;SDS011;64606;44.062;2.986;2024-01-06T05:54:34;0.60;;;0.60;;
75928;SDS011;64606;44.062;2.986;2024-01-06T05:57:00;0.90;;;0.60;;
75928;SDS011;64606;44.062;2.986;2024-01-06T05:59:27;0.80;;;0.70;;
75928;SDS011;64606;44.062;2.986;2024-01-06T06:01:53;0.60;;;0.60;;
75928;SDS011;64606;44.062;2.986;2024-01-06T06:04:19;0.85;;;0.60;;
75928;SDS011;64606;44.062;2.986;2024-01-06T06:06:45;1.30;;;0.80;;
75928;SDS011;64606;44.062;2.986;2024-01-06T06:09:11;1.10;;;1.00;;
75928;SDS011;64606;44.062;2.986;2024-01-06T06:11:38;1.00;;;0.80;;
75928;SDS011;64606;44.062;2.986;2024-01-06T06:14:04;0.90;;;0.88;;
75928;SDS011;64606;44.062;2.986;2024-01-06T06:16:30;1.42;;;0.82;;
75928;SDS011;64606;44.062;2.986;2024-01-06T06:18:56;0.70;;;0.70;;
75928;SDS011;64606;44.062;2.986;2024-01-06T06:21:23;1.10;;;1.00;;
75928;SDS011;64606;44.062;2.986;2024-01-06T06:23:49;1.38;;;1.10;;
75928;SDS011;64606;44.062;2.986;2024-01-06T06:26:15;1.02;;;0.93;;
75928;SDS011;64606;44.062;2.986;2024-01-06T06:28:42;1.10;;;1.00;;
75928;SDS011;64606;44.062;2.986;2024-01-06T06:31:08;0.90;;;0.75;;
75928;SDS011;64606;44.062;2.986;2024-01-06T06:33:34;1.10;;;1.00;;
75928;SDS011;64606;44.062;2.986;2024-01-06T06:36:00;0.80;;;0.80;;
75928;SDS011;64606;44.062;2.986;2024-01-06T06:38:27;0.73;;;0.70;;
75928;SDS011;64606;44.062;2.986;2024-01-06T06:40:53;0.80;;;0.80;;
75928;SDS011;64606;44.062;2.986;2024-01-06T06:43:19;1.10;;;0.80;;
75928;SDS011;64606;44.062;2.986;2024-01-06T06:45:45;1.00;;;0.98;;
75928;SDS011;64606;44.062;2.986;2024-01-06T06:48:11;1.20;;;0.90;;
75928;SDS011;64606;44.062;2.986;2024-01-06T06:50:37;1.20;;;1.08;;
75928;SDS011;64606;44.062;2.986;2024-01-06T06:53:06;0.80;;;0.80;;
75928;SDS011;64606;44.062;2.986;2024-01-06T06:55:32;1.17;;;1.08;;
75928;SDS011;64606;44.062;2.986;2024-01-06T06:57:58;1.00;;;0.85;;
75928;SDS011;64606;44.062;2.986;2024-01-06T07:00:24;1.40;;;1.30;;
75928;SDS011;64606;44.062;2.986;2024-01-06T07:02:50;1.88;;;1.10;;
75928;SDS011;64606;44.062;2.986;2024-01-06T07:05:16;1.10;;;1.00;;
75928;SDS011;64606;44.062;2.986;2024-01-06T07:07:42;1.20;;;1.10;;
75928;SDS011;64606;44.062;2.986;2024-01-06T07:10:11;1.40;;;1.30;;
75928;SDS011;64606;44.062;2.986;2024-01-06T07:12:38;1.45;;;1.17;;
75928;SDS011;64606;44.062;2.986;2024-01-06T07:15:04;2.92;;;1.30;;
75928;SDS011;64606;44.062;2.986;2024-01-06T07:17:30;1.83;;;1.40;;
75928;SDS011;64606;44.062;2.986;2024-01-06T07:19:56;2.60;;;1.20;;
75928;SDS011;64606;44.062;2.986;2024-01-06T07:22:22;2.47;;;1.45;;
75928;SDS011;64606;44.062;2.986;2024-01-06T07:24:48;2.90;;;1.75;;
75928;SDS011;64606;44.062;2.986;2024-01-06T07:27:14;3.75;;;1.58;;
75928;SDS011;64606;44.062;2.986;2024-01-06T07:29:41;2.25;;;1.40;;
75928;SDS011;64606;44.062;2.986;2024-01-06T07:32:07;1.35;;;1.25;;
75928;SDS011;64606;44.062;2.986;2024-01-06T07:34:33;1.63;;;1.23;;
75928;SDS011;64606;44.062;2.986;2024-01-06T07:36:59;1.80;;;1.23;;
75928;SDS011;64606;44.062;2.986;2024-01-06T07:39:26;2.20;;;1.60;;
75928;SDS011;64606;44.062;2.986;2024-01-06T07:41:52;2.17;;;1.60;;
75928;SDS011;64606;44.062;2.986;2024-01-06T07:44:18;2.22;;;1.50;;
75928;SDS011;64606;44.062;2.986;2024-01-06T07:46:50;3.92;;;1.80;;
75928;SDS011;64606;44.062;2.986;2024-01-06T07:49:16;1.45;;;1.25;;
75928;SDS011;64606;44.062;2.986;2024-01-06T07:51:42;3.42;;;1.50;;
75928;SDS011;64606;44.062;2.986;2024-01-06T07:54:09;4.10;;;1.45;;
75928;SDS011;64606;44.062;2.986;2024-01-06T07:56:36;2.08;;;1.40;;
75928;SDS011;64606;44.062;2.986;2024-01-06T07:59:03;2.47;;;1.60;;
75928;SDS011;64606;44.062;2.986;2024-01-06T08:01:29;1.83;;;1.42;;
75928;SDS011;64606;44.062;2.986;2024-01-06T08:03:56;2.63;;;1.50;;
75928;SDS011;64606;44.062;2.986;2024-01-06T08:06:22;3.92;;;1.63;;
75928;SDS011;64606;44.062;2.986;2024-01-06T08:08:48;1.85;;;1.35;;
75928;SDS011;64606;44.062;2.986;2024-01-06T08:11:14;2.17;;;1.27;;
75928;SDS011;64606;44.062;2.986;2024-01-06T08:13:40;2.13;;;1.42;;
75928;SDS011;64606;44.062;2.986;2024-01-06T08:16:07;1.98;;;1.25;;
75928;SDS011;64606;44.062;2.986;2024-01-06T08:18:33;2.47;;;1.50;;
75928;SDS011;64606;44.062;2.986;2024-01-06T08:20:59;2.03;;;1.30;;
75928;SDS011;64606;44.062;2.986;2024-01-06T08:23:25;1.52;;;1.30;;
75928;SDS011;64606;44.062;2.986;2024-01-06T08:25:51;1.85;;;1.40;;
75928;SDS011;64606;44.062;2.986;2024-01-06T08:28:17;1.38;;;1.23;;
75928;SDS011;64606;44.062;2.986;2024-01-06T08:30:48;1.33;;;1.23;;
75928;SDS011;64606;44.062;2.986;2024-01-06T08:33:14;1.30;;;1.20;;
75928;SDS011;64606;44.062;2.986;2024-01-06T08:35:40;1.30;;;1.13;;
75928;SDS011;64606;44.062;2.986;2024-01-06T08:38:07;1.65;;;1.33;;
75928;SDS011;64606;44.062;2.986;2024-01-06T08:40:33;1.60;;;1.25;;
75928;SDS011;64606;44.062;2.986;2024-01-06T08:43:00;2.28;;;1.20;;
75928;SDS011;64606;44.062;2.986;2024-01-06T08:45:26;1.10;;;1.00;;
75928;SDS011;64606;44.062;2.986;2024-01-06T08:47:52;1.23;;;0.90;;
75928;SDS011;64606;44.062;2.986;2024-01-06T08:50:18;1.42;;;1.08;;
75928;SDS011;64606;44.062;2.986;2024-01-06T08:52:44;1.13;;;1.02;;
75928;SDS011;64606;44.062;2.986;2024-01-06T08:55:10;1.90;;;1.10;;
75928;SDS011;64606;44.062;2.986;2024-01-06T08:57:37;1.30;;;1.20;;
75928;SDS011;64606;44.062;2.986;2024-01-06T09:00:03;1.23;;;1.00;;
75928;SDS011;64606;44.062;2.986;2024-01-06T09:02:30;0.80;;;0.80;;
75928;SDS011;64606;44.062;2.986;2024-01-06T09:04:56;1.05;;;0.93;;
75928;SDS011;64606;44.062;2.986;2024-01-06T09:07:23;2.22;;;1.20;;
75928;SDS011;64606;44.062;2.986;2024-01-06T09:09:50;1.55;;;0.90;;
75928;SDS011;64606;44.062;2.986;2024-01-06T09:12:16;1.40;;;1.10;;
75928;SDS011;64606;44.062;2.986;2024-01-06T09:14:42;1.38;;;1.02;;
75928;SDS011;64606;44.062;2.986;2024-01-06T09:17:08;1.95;;;1.35;;
75928;SDS011;64606;44.062;2.986;2024-01-06T09:19:35;1.08;;;0.90;;
75928;SDS011;64606;44.062;2.986;2024-01-06T09:22:01;1.10;;;1.00;;
75928;SDS011;64606;44.062;2.986;2024-01-06T09:24:27;1.30;;;1.20;;
75928;SDS011;64606;44.062;2.986;2024-01-06T09:26:53;1.13;;;1.02;;
75928;SDS011;64606;44.062;2.986;2024-01-06T09:29:19;1.27;;;1.17;;
75928;SDS011;64606;44.062;2.986;2024-01-06T09:31:46;1.20;;;1.10;;
75928;SDS011;64606;44.062;2.986;2024-01-06T09:34:12;2.85;;;1.33;;
75928;SDS011;64606;44.062;2.986;2024-01-06T09:36:38;1.20;;;1.10;;
75928;SDS011;64606;44.062;2.986;2024-01-06T09:39:05;1.30;;;1.20;;
75928;SDS011;64606;44.062;2.986;2024-01-06T09:41:33;1.20;;;1.10;;
75928;SDS011;64606;44.062;2.986;2024-01-06T09:43:59;1.30;;;1.20;;
75928;SDS011;64606;44.062;2.986;2024-01-06T09:48:52;1.40;;;1.02;;
75928;SDS011;64606;44.062;2.986;2024-01-06T09:51:19;1.33;;;1.10;;
75928;SDS011;64606;44.062;2.986;2024-01-06T09:53:59;2.50;;;0.90;;
75928;SDS011;64606;44.062;2.986;2024-01-06T09:56:26;1.17;;;0.95;;
75928;SDS011;64606;44.062;2.986;2024-01-06T09:58:53;0.80;;;0.80;;
75928;SDS011;64606;44.062;2.986;2024-01-06T10:01:21;1.27;;;0.88;;
75928;SDS011;64606;44.062;2.986;2024-01-06T10:03:48;1.20;;;0.80;;
75928;SDS011;64606;44.062;2.986;2024-01-06T10:06:14;1.10;;;1.00;;
75928;SDS011;64606;44.062;2.986;2024-01-06T10:08:44;1.10;;;0.90;;
75928;SDS011;64606;44.062;2.986;2024-01-06T10:11:10;1.10;;;1.00;;
75928;SDS011;64606;44.062;2.986;2024-01-06T10:13:36;0.95;;;0.88;;
75928;SDS011;64606;44.062;2.986;2024-01-06T10:16:04;1.08;;;0.98;;
75928;SDS011;64606;44.062;2.986;2024-01-06T10:18:30;1.45;;;1.10;;
75928;SDS011;64606;44.062;2.986;2024-01-06T10:20:57;1.33;;;0.90;;
75928;SDS011;64606;44.062;2.986;2024-01-06T10:23:23;3.92;;;0.85;;
75928;SDS011;64606;44.062;2.986;2024-01-06T10:25:53;1.33;;;0.80;;
75928;SDS011;64606;44.062;2.986;2024-01-06T10:28:23;2.35;;;1.13;;
75928;SDS011;64606;44.062;2.986;2024-01-06T10:30:51;1.50;;;0.93;;
75928;SDS011;64606;44.062;2.986;2024-01-06T10:33:18;0.82;;;0.82;;
75928;SDS011;64606;44.062;2.986;2024-01-06T10:35:45;1.20;;;0.90;;
75928;SDS011;64606;44.062;2.986;2024-01-06T10:38:11;0.82;;;0.82;;
75928;SDS011;64606;44.062;2.986;2024-01-06T10:40:37;1.17;;;0.90;;
75928;SDS011;64606;44.062;2.986;2024-01-06T10:43:04;2.65;;;1.00;;
75928;SDS011;64606;44.062;2.986;2024-01-06T10:45:31;4.30;;;0.90;;
75928;SDS011;64606;44.062;2.986;2024-01-06T10:47:57;1.77;;;0.77;;
75928;SDS011;64606;44.062;2.986;2024-01-06T10:50:23;8.40;;;1.05;;
75928;SDS011;64606;44.062;2.986;2024-01-06T10:52:49;14.85;;;1.38;;
75928;SDS011;64606;44.062;2.986;2024-01-06T10:55:16;26.13;;;2.00;;
75928;SDS011;64606;44.062;2.986;2024-01-06T10:57:43;9.63;;;1.52;;
75928;SDS011;64606;44.062;2.986;2024-01-06T11:00:10;11.73;;;1.50;;
75928;SDS011;64606;44.062;2.986;2024-01-06T11:02:37;13.02;;;1.48;;
75928;SDS011;64606;44.062;2.986;2024-01-06T11:05:04;26.48;;;2.05;;
75928;SDS011;64606;44.062;2.986;2024-01-06T11:07:32;16.50;;;1.30;;
75928;SDS011;64606;44.062;2.986;2024-01-06T11:12:27;11.52;;;1.50;;
75928;SDS011;64606;44.062;2.986;2024-01-06T11:14:53;7.70;;;1.33;;
75928;SDS011;64606;44.062;2.986;2024-01-06T11:20:05;5.03;;;1.20;;
75928;SDS011;64606;44.062;2.986;2024-01-06T11:22:31;6.88;;;1.10;;
75928;SDS011;64606;44.062;2.986;2024-01-06T11:25:05;5.43;;;1.10;;
75928;SDS011;64606;44.062;2.986;2024-01-06T11:27:32;5.22;;;1.13;;
75928;SDS011;64606;44.062;2.986;2024-01-06T11:29:59;3.53;;;1.10;;
75928;SDS011;64606;44.062;2.986;2024-01-06T11:32:27;5.00;;;0.90;;
75928;SDS011;64606;44.062;2.986;2024-01-06T11:34:53;8.68;;;1.52;;
75928;SDS011;64606;44.062;2.986;2024-01-06T11:37:24;1.95;;;0.80;;
75928;SDS011;64606;44.062;2.986;2024-01-06T11:39:50;5.78;;;1.00;;
75928;SDS011;64606;44.062;2.986;2024-01-06T11:42:16;3.65;;;1.00;;
75928;SDS011;64606;44.062;2.986;2024-01-06T11:44:43;6.60;;;1.00;;
75928;SDS011;64606;44.062;2.986;2024-01-06T11:47:12;4.32;;;1.10;;
75928;SDS011;64606;44.062;2.986;2024-01-06T11:49:40;2.88;;;0.90;;
75928;SDS011;64606;44.062;2.986;2024-01-06T11:52:09;5.63;;;0.90;;
75928;SDS011;64606;44.062;2.986;2024-01-06T11:54:35;3.78;;;1.23;;
75928;SDS011;64606;44.062;2.986;2024-01-06T11:57:02;3.50;;;1.10;;
75928;SDS011;64606;44.062;2.986;2024-01-06T11:59:28;5.05;;;1.20;;
75928;SDS011;64606;44.062;2.986;2024-01-06T12:01:55;4.07;;;1.00;;
75928;SDS011;64606;44.062;2.986;2024-01-06T12:04:21;2.80;;;0.95;;
75928;SDS011;64606;44.062;2.986;2024-01-06T12:06:50;5.45;;;1.35;;
75928;SDS011;64606;44.062;2.986;2024-01-06T12:09:16;6.70;;;1.25;;
75928;SDS011;64606;44.062;2.986;2024-01-06T12:11:44;3.28;;;1.08;;
75928;SDS011;64606;44.062;2.986;2024-01-06T12:14:12;4.57;;;0.80;;
75928;SDS011;64606;44.062;2.986;2024-01-06T12:16:38;4.50;;;1.00;;
75928;SDS011;64606;44.062;2.986;2024-01-06T12:19:04;1.27;;;0.88;;
75928;SDS011;64606;44.062;2.986;2024-01-06T12:21:30;1.75;;;0.90;;
75928;SDS011;64606;44.062;2.986;2024-01-06T12:24:17;2.85;;;1.10;;
75928;SDS011;64606;44.062;2.986;2024-01-06T12:26:45;1.25;;;0.85;;
75928;SDS011;64606;44.062;2.986;2024-01-06T12:29:12;1.63;;;0.90;;
75928;SDS011;64606;44.062;2.986;2024-01-06T12:31:42;3.85;;;1.10;;
75928;SDS011;64606;44.062;2.986;2024-01-06T12:34:09;2.40;;;1.05;;
75928;SDS011;64606;44.062;2.986;2024-01-06T12:36:36;1.73;;;0.98;;
75928;SDS011;64606;44.062;2.986;2024-01-06T12:39:02;2.45;;;0.77;;
75928;SDS011;64606;44.062;2.986;2024-01-06T12:41:29;11.95;;;1.35;;
75928;SDS011;64606;44.062;2.986;2024-01-06T12:43:58;3.40;;;1.10;;
75928;SDS011;64606;44.062;2.986;2024-01-06T12:46:24;4.53;;;1.20;;
75928;SDS011;64606;44.062;2.986;2024-01-06T12:48:50;2.20;;;1.00;;
75928;SDS011;64606;44.062;2.986;2024-01-06T12:51:16;2.45;;;1.10;;
75928;SDS011;64606;44.062;2.986;2024-01-06T12:53:42;2.38;;;1.00;;
75928;SDS011;64606;44.062;2.986;2024-01-06T12:56:09;1.83;;;0.93;;
75928;SDS011;64606;44.062;2.986;2024-01-06T12:58:35;1.55;;;1.20;;
75928;SDS011;64606;44.062;2.986;2024-01-06T13:01:01;4.32;;;1.15;;
75928;SDS011;64606;44.062;2.986;2024-01-06T13:03:28;3.50;;;1.20;;
75928;SDS011;64606;44.062;2.986;2024-01-06T13:05:54;10.52;;;1.25;;
75928;SDS011;64606;44.062;2.986;2024-01-06T13:08:20;4.50;;;1.30;;
75928;SDS011;64606;44.062;2.986;2024-01-06T13:10:46;5.40;;;1.30;;
75928;SDS011;64606;44.062;2.986;2024-01-06T13:13:12;2.33;;;1.30;;
75928;SDS011;64606;44.062;2.986;2024-01-06T13:15:38;4.47;;;1.58;;
75928;SDS011;64606;44.062;2.986;2024-01-06T13:18:04;3.78;;;1.60;;
75928;SDS011;64606;44.062;2.986;2024-01-06T13:20:31;4.82;;;1.60;;
75928;SDS011;64606;44.062;2.986;2024-01-06T13:22:57;4.55;;;1.63;;
75928;SDS011;64606;44.062;2.986;2024-01-06T13:25:23;3.22;;;1.77;;
75928;SDS011;64606;44.062;2.986;2024-01-06T13:27:49;6.25;;;1.80;;
75928;SDS011;64606;44.062;2.986;2024-01-06T13:30:16;5.95;;;1.98;;
75928;SDS011;64606;44.062;2.986;2024-01-06T13:32:42;5.45;;;1.80;;
75928;SDS011;64606;44.062;2.986;2024-01-06T13:35:09;4.38;;;2.00;;
75928;SDS011;64606;44.062;2.986;2024-01-06T13:37:37;3.15;;;1.65;;
75928;SDS011;64606;44.062;2.986;2024-01-06T13:40:03;8.48;;;2.13;;
75928;SDS011;64606;44.062;2.986;2024-01-06T13:42:32;5.32;;;2.05;;
75928;SDS011;64606;44.062;2.986;2024-01-06T13:44:58;4.30;;;2.00;;
75928;SDS011;64606;44.062;2.986;2024-01-06T13:47:26;4.47;;;2.00;;
75928;SDS011;64606;44.062;2.986;2024-01-06T13:49:52;4.75;;;2.05;;
75928;SDS011;64606;44.062;2.986;2024-01-06T13:52:20;4.00;;;1.70;;
75928;SDS011;64606;44.062;2.986;2024-01-06T13:54:46;3.88;;;1.73;;
75928;SDS011;64606;44.062;2.986;2024-01-06T13:57:12;3.60;;;1.73;;
75928;SDS011;64606;44.062;2.986;2024-01-06T13:59:38;2.80;;;1.52;;
75928;SDS011;64606;44.062;2.986;2024-01-06T14:02:08;5.38;;;1.52;;
75928;SDS011;64606;44.062;2.986;2024-01-06T14:04:34;3.67;;;1.48;;
75928;SDS011;64606;44.062;2.986;2024-01-06T14:07:00;4.65;;;1.73;;
75928;SDS011;64606;44.062;2.986;2024-01-06T14:09:30;4.30;;;1.52;;
75928;SDS011;64606;44.062;2.986;2024-01-06T14:11:56;3.17;;;1.70;;
75928;SDS011;64606;44.062;2.986;2024-01-06T14:14:22;2.72;;;1.50;;
75928;SDS011;64606;44.062;2.986;2024-01-06T14:16:48;3.38;;;1.58;;
75928;SDS011;64606;44.062;2.986;2024-01-06T14:19:15;3.70;;;1.40;;
75928;SDS011;64606;44.062;2.986;2024-01-06T14:21:41;2.58;;;1.23;;
75928;SDS011;64606;44.062;2.986;2024-01-06T14:24:07;3.05;;;1.60;;
75928;SDS011;64606;44.062;2.986;2024-01-06T14:26:33;4.28;;;1.40;;
75928;SDS011;64606;44.062;2.986;2024-01-06T14:29:00;1.65;;;1.38;;
75928;SDS011;64606;44.062;2.986;2024-01-06T14:31:26;2.42;;;1.27;;
75928;SDS011;64606;44.062;2.986;2024-01-06T14:33:52;3.47;;;1.60;;
75928;SDS011;64606;44.062;2.986;2024-01-06T14:36:18;1.30;;;1.13;;
75928;SDS011;64606;44.062;2.986;2024-01-06T14:38:44;2.03;;;1.13;;
75928;SDS011;64606;44.062;2.986;2024-01-06T14:41:10;1.58;;;0.98;;
75928;SDS011;64606;44.062;2.986;2024-01-06T14:43:36;2.33;;;1.10;;
75928;SDS011;64606;44.062;2.986;2024-01-06T14:46:03;4.10;;;1.13;;
75928;SDS011;64606;44.062;2.986;2024-01-06T14:48:30;1.25;;;1.10;;
75928;SDS011;64606;44.062;2.986;2024-01-06T14:50:57;1.65;;;1.10;;
75928;SDS011;64606;44.062;2.986;2024-01-06T14:53:23;1.77;;;0.88;;